sensor_id;sensor_type;location;lat;lon;timestamp;pressure;altitude;pressure_sealevel;temperature;humidity
39275;BME280;24980;48.874;2.332;2023-03-14T00:01:10;98951.72;;;22.18;47.94
39275;BME280;24980;48.874;2.332;2023-03-14T00:03:34;98946.73;;;22.16;48.06
39275;BME280;24980;48.874;2.332;2023-03-14T00:06:06;98942.98;;;22.15;48.13
39275;BME280;24980;48.874;2.332;2023-03-14T00:08:34;98939.31;;;22.14;48.19
39275;BME280;24980;48.874;2.332;2023-03-14T00:11:08;98945.48;;;22.14;48.25
39275;BME280;24980;48.874;2.332;2023-03-14T00:13:35;98926.88;;;22.15;48.30
39275;BME280;24980;48.874;2.332;2023-03-14T00:16:19;98936.95;;;22.16;48.41
39275;BME280;24980;48.874;2.332;2023-03-14T00:18:36;98941.52;;;22.16;48.53
39275;BME280;24980;48.874;2.332;2023-03-14T00:21:10;98944.77;;;22.15;48.65
39275;BME280;24980;48.874;2.332;2023-03-14T00:23:41;98941.69;;;22.14;48.75
39275;BME280;24980;48.874;2.332;2023-03-14T00:26:12;98929.89;;;22.13;48.83
39275;BME280;24980;48.874;2.332;2023-03-14T00:28:39;98921.79;;;22.12;48.89
39275;BME280;24980;48.874;2.332;2023-03-14T00:31:11;98920.83;;;22.11;48.93
39275;BME280;24980;48.874;2.332;2023-03-14T00:33:39;98920.19;;;22.10;48.96
39275;BME280;24980;48.874;2.332;2023-03-14T00:36:12;98908.18;;;22.09;48.98
39275;BME280;24980;48.874;2.332;2023-03-14T00:38:43;98903.81;;;22.08;48.99
39275;BME280;24980;48.874;2.332;2023-03-14T00:41:13;98899.80;;;22.07;49.00
39275;BME280;24980;48.874;2.332;2023-03-14T00:43:42;98907.67;;;22.06;49.01
39275;BME280;24980;48.874;2.332;2023-03-14T00:46:12;98910.22;;;22.06;49.02
39275;BME280;24980;48.874;2.332;2023-03-14T00:48:44;98898.56;;;22.05;49.02
39275;BME280;24980;48.874;2.332;2023-03-14T00:51:16;98912.59;;;22.04;49.04
39275;BME280;24980;48.874;2.332;2023-03-14T00:53:45;98906.21;;;22.03;49.05
39275;BME280;24980;48.874;2.332;2023-03-14T00:56:14;98904.36;;;22.01;49.07
39275;BME280;24980;48.874;2.332;2023-03-14T00:58:44;98905.73;;;22.01;49.09
39275;BME280;24980;48.874;2.332;2023-03-14T01:01:18;98910.55;;;22.01;49.12
39275;BME280;24980;48.874;2.332;2023-03-14T01:03:49;98906.77;;;22.00;49.16
39275;BME280;24980;48.874;2.332;2023-03-14T01:06:17;98912.69;;;22.00;49.21
39275;BME280;24980;48.874;2.332;2023-03-14T01:08:49;98908.80;;;22.00;49.25
39275;BME280;24980;48.874;2.332;2023-03-14T01:11:18;98900.05;;;21.99;49.30
39275;BME280;24980;48.874;2.332;2023-03-14T01:13:53;98903.81;;;21.99;49.33
39275;BME280;24980;48.874;2.332;2023-03-14T01:16:25;98899.03;;;21.98;49.34
39275;BME280;24980;48.874;2.332;2023-03-14T01:18:50;98908.23;;;21.98;49.35
39275;BME280;24980;48.874;2.332;2023-03-14T01:21:24;98896.78;;;21.97;49.35
39275;BME280;24980;48.874;2.332;2023-03-14T01:24:02;98904.81;;;21.97;49.35
39275;BME280;24980;48.874;2.332;2023-03-14T01:26:21;98898.14;;;21.97;49.33
39275;BME280;24980;48.874;2.332;2023-03-14T01:28:52;98892.73;;;21.96;49.31
39275;BME280;24980;48.874;2.332;2023-03-14T01:31:21;98901.60;;;21.95;49.29
39275;BME280;24980;48.874;2.332;2023-03-14T01:33:52;98902.12;;;21.95;49.27
39275;BME280;24980;48.874;2.332;2023-03-14T01:36:26;98892.04;;;21.94;49.25
39275;BME280;24980;48.874;2.332;2023-03-14T01:38:53;98882.02;;;21.93;49.21
39275;BME280;24980;48.874;2.332;2023-03-14T01:41:25;98886.80;;;21.93;49.23
39275;BME280;24980;48.874;2.332;2023-03-14T01:43:53;98884.45;;;21.92;49.24
39275;BME280;24980;48.874;2.332;2023-03-14T01:46:37;98879.20;;;21.90;49.26
39275;BME280;24980;48.874;2.332;2023-03-14T01:51:49;98899.12;;;21.90;49.27
39275;BME280;24980;48.874;2.332;2023-03-14T01:54:02;98897.22;;;21.90;49.28
39275;BME280;24980;48.874;2.332;2023-03-14T01:56:27;98895.14;;;21.89;49.27
39275;BME280;24980;48.874;2.332;2023-03-14T01:59:01;98907.69;;;21.89;49.27
39275;BME280;24980;48.874;2.332;2023-03-14T02:01:36;98906.11;;;21.88;49.29
39275;BME280;24980;48.874;2.332;2023-03-14T02:04:06;98911.39;;;21.89;49.29
39275;BME280;24980;48.874;2.332;2023-03-14T02:06:40;98906.02;;;21.88;49.29
39275;BME280;24980;48.874;2.332;2023-03-14T02:09:00;98913.94;;;21.88;49.29
39275;BME280;24980;48.874;2.332;2023-03-14T02:11:31;98907.16;;;21.87;49.30
39275;BME280;24980;48.874;2.332;2023-03-14T02:14:10;98908.24;;;21.87;49.31
39275;BME280;24980;48.874;2.332;2023-03-14T02:16:34;98909.56;;;21.86;49.33
39275;BME280;24980;48.874;2.332;2023-03-14T02:19:09;98916.14;;;21.86;49.33
39275;BME280;24980;48.874;2.332;2023-03-14T02:22:02;98911.92;;;21.86;49.35
39275;BME280;24980;48.874;2.332;2023-03-14T02:24:17;98911.04;;;21.85;49.32
39275;BME280;24980;48.874;2.332;2023-03-14T02:26:45;98906.42;;;21.84;49.32
39275;BME280;24980;48.874;2.332;2023-03-14T02:29:03;98905.92;;;21.84;49.31
39275;BME280;24980;48.874;2.332;2023-03-14T02:31:33;98904.16;;;21.84;49.31
39275;BME280;24980;48.874;2.332;2023-03-14T02:34:03;98899.80;;;21.83;49.29
39275;BME280;24980;48.874;2.332;2023-03-14T02:36:36;98894.14;;;21.82;49.26
39275;BME280;24980;48.874;2.332;2023-03-14T02:39:16;98897.62;;;21.81;49.23
39275;BME280;24980;48.874;2.332;2023-03-14T02:41:36;98895.30;;;21.80;49.21
39275;BME280;24980;48.874;2.332;2023-03-14T02:44:10;98895.27;;;21.79;49.17
39275;BME280;24980;48.874;2.332;2023-03-14T02:46:37;98890.17;;;21.78;49.15
39275;BME280;24980;48.874;2.332;2023-03-14T02:49:14;98897.92;;;21.78;49.12
39275;BME280;24980;48.874;2.332;2023-03-14T02:51:42;98887.41;;;21.76;49.09
39275;BME280;24980;48.874;2.332;2023-03-14T02:54:08;98888.09;;;21.76;49.07
39275;BME280;24980;48.874;2.332;2023-03-14T02:56:39;98885.27;;;21.75;49.08
39275;BME280;24980;48.874;2.332;2023-03-14T02:59:10;98875.59;;;21.74;49.07
39275;BME280;24980;48.874;2.332;2023-03-14T03:01:42;98887.80;;;21.74;49.10
39275;BME280;24980;48.874;2.332;2023-03-14T03:04:13;98890.36;;;21.74;49.13
39275;BME280;24980;48.874;2.332;2023-03-14T03:06:41;98894.05;;;21.74;49.17
39275;BME280;24980;48.874;2.332;2023-03-14T03:09:11;98892.45;;;21.74;49.20
39275;BME280;24980;48.874;2.332;2023-03-14T03:11:42;98897.05;;;21.73;49.23
39275;BME280;24980;48.874;2.332;2023-03-14T03:14:12;98906.17;;;21.73;49.27
39275;BME280;24980;48.874;2.332;2023-03-14T03:16:42;98899.94;;;21.73;49.29
39275;BME280;24980;48.874;2.332;2023-03-14T03:19:15;98903.67;;;21.74;49.33
39275;BME280;24980;48.874;2.332;2023-03-14T03:21:43;98904.73;;;21.73;49.36
39275;BME280;24980;48.874;2.332;2023-03-14T03:24:14;98904.23;;;21.73;49.37
39275;BME280;24980;48.874;2.332;2023-03-14T03:26:43;98901.53;;;21.73;49.34
39275;BME280;24980;48.874;2.332;2023-03-14T03:29:14;98909.59;;;21.72;49.30
39275;BME280;24980;48.874;2.332;2023-03-14T03:34:28;98909.09;;;21.70;49.22
39275;BME280;24980;48.874;2.332;2023-03-14T03:36:44;98910.53;;;21.70;49.18
39275;BME280;24980;48.874;2.332;2023-03-14T03:39:15;98909.23;;;21.68;49.15
39275;BME280;24980;48.874;2.332;2023-03-14T03:41:45;98919.61;;;21.68;49.12
39275;BME280;24980;48.874;2.332;2023-03-14T03:44:15;98916.39;;;21.67;49.10
39275;BME280;24980;48.874;2.332;2023-03-14T03:46:48;98917.68;;;21.66;49.09
39275;BME280;24980;48.874;2.332;2023-03-14T03:49:17;98920.08;;;21.65;49.12
39275;BME280;24980;48.874;2.332;2023-03-14T03:51:45;98916.38;;;21.65;49.18
39275;BME280;24980;48.874;2.332;2023-03-14T03:54:15;98921.78;;;21.65;49.22
39275;BME280;24980;48.874;2.332;2023-03-14T03:56:46;98924.12;;;21.65;49.24
39275;BME280;24980;48.874;2.332;2023-03-14T03:59:20;98925.39;;;21.65;49.22
39275;BME280;24980;48.874;2.332;2023-03-14T04:01:46;98927.70;;;21.64;49.21
39275;BME280;24980;48.874;2.332;2023-03-14T04:04:16;98932.48;;;21.63;49.20
39275;BME280;24980;48.874;2.332;2023-03-14T04:06:48;98933.36;;;21.62;49.18
39275;BME280;24980;48.874;2.332;2023-03-14T04:09:17;98931.42;;;21.62;49.15
39275;BME280;24980;48.874;2.332;2023-03-14T04:11:47;98936.81;;;21.61;49.13
39275;BME280;24980;48.874;2.332;2023-03-14T04:14:17;98935.80;;;21.61;49.12
39275;BME280;24980;48.874;2.332;2023-03-14T04:16:47;98941.91;;;21.60;49.11
39275;BME280;24980;48.874;2.332;2023-03-14T04:19:17;98946.66;;;21.59;49.10
39275;BME280;24980;48.874;2.332;2023-03-14T04:21:47;98949.92;;;21.58;49.10
39275;BME280;24980;48.874;2.332;2023-03-14T04:24:17;98959.36;;;21.58;49.12
39275;BME280;24980;48.874;2.332;2023-03-14T04:26:47;98952.89;;;21.57;49.12
39275;BME280;24980;48.874;2.332;2023-03-14T04:29:17;98963.27;;;21.56;49.11
39275;BME280;24980;48.874;2.332;2023-03-14T04:31:47;98964.99;;;21.55;49.11
39275;BME280;24980;48.874;2.332;2023-03-14T04:34:17;98971.08;;;21.55;49.11
39275;BME280;24980;48.874;2.332;2023-03-14T04:36:49;98972.78;;;21.54;49.11
39275;BME280;24980;48.874;2.332;2023-03-14T04:39:19;98986.42;;;21.53;49.11
39275;BME280;24980;48.874;2.332;2023-03-14T04:41:48;98984.06;;;21.53;49.11
39275;BME280;24980;48.874;2.332;2023-03-14T04:44:18;98992.59;;;21.52;49.12
39275;BME280;24980;48.874;2.332;2023-03-14T04:46:48;98997.19;;;21.51;49.12
39275;BME280;24980;48.874;2.332;2023-03-14T04:49:18;99000.98;;;21.51;49.12
39275;BME280;24980;48.874;2.332;2023-03-14T04:51:48;99023.41;;;21.51;49.14
39275;BME280;24980;48.874;2.332;2023-03-14T04:54:18;99037.03;;;21.50;49.15
39275;BME280;24980;48.874;2.332;2023-03-14T04:56:48;99050.72;;;21.49;49.16
39275;BME280;24980;48.874;2.332;2023-03-14T04:59:18;99080.51;;;21.46;49.19
39275;BME280;24980;48.874;2.332;2023-03-14T05:01:49;99097.21;;;21.44;49.20
39275;BME280;24980;48.874;2.332;2023-03-14T05:04:19;99112.21;;;21.44;49.20
39275;BME280;24980;48.874;2.332;2023-03-14T05:06:49;99114.73;;;21.44;49.20
39275;BME280;24980;48.874;2.332;2023-03-14T05:09:19;99128.99;;;21.44;49.20
39275;BME280;24980;48.874;2.332;2023-03-14T05:11:49;99130.00;;;21.44;49.22
39275;BME280;24980;48.874;2.332;2023-03-14T05:14:19;99152.12;;;21.42;49.28
39275;BME280;24980;48.874;2.332;2023-03-14T05:16:49;99162.30;;;21.41;49.30
39275;BME280;24980;48.874;2.332;2023-03-14T05:19:19;99159.57;;;21.40;49.32
39275;BME280;24980;48.874;2.332;2023-03-14T05:21:49;99171.48;;;21.38;49.28
39275;BME280;24980;48.874;2.332;2023-03-14T05:24:22;99185.03;;;21.37;49.28
39275;BME280;24980;48.874;2.332;2023-03-14T05:26:50;99195.65;;;21.37;49.27
39275;BME280;24980;48.874;2.332;2023-03-14T05:29:20;99211.83;;;21.37;49.27
39275;BME280;24980;48.874;2.332;2023-03-14T05:31:50;99206.09;;;21.37;49.29
39275;BME280;24980;48.874;2.332;2023-03-14T05:34:21;99220.83;;;21.38;49.33
39275;BME280;24980;48.874;2.332;2023-03-14T05:36:52;99225.16;;;21.39;49.35
39275;BME280;24980;48.874;2.332;2023-03-14T05:39:22;99240.40;;;21.39;49.38
39275;BME280;24980;48.874;2.332;2023-03-14T05:41:52;99248.89;;;21.40;49.38
39275;BME280;24980;48.874;2.332;2023-03-14T05:44:22;99248.75;;;21.39;49.35
39275;BME280;24980;48.874;2.332;2023-03-14T05:46:53;99264.50;;;21.39;49.34
39275;BME280;24980;48.874;2.332;2023-03-14T05:49:28;99278.69;;;21.38;49.31
39275;BME280;24980;48.874;2.332;2023-03-14T05:51:54;99283.08;;;21.36;49.28
39275;BME280;24980;48.874;2.332;2023-03-14T05:54:24;99294.30;;;21.36;49.25
39275;BME280;24980;48.874;2.332;2023-03-14T05:56:55;99313.67;;;21.36;49.21
39275;BME280;24980;48.874;2.332;2023-03-14T05:59:24;99319.20;;;21.35;49.19
39275;BME280;24980;48.874;2.332;2023-03-14T06:01:54;99330.02;;;21.34;49.17
39275;BME280;24980;48.874;2.332;2023-03-14T06:04:24;99344.80;;;21.33;49.13
39275;BME280;24980;48.874;2.332;2023-03-14T06:06:55;99366.39;;;21.30;49.12
39275;BME280;24980;48.874;2.332;2023-03-14T06:09:25;99366.23;;;21.29;49.08
39275;BME280;24980;48.874;2.332;2023-03-14T06:11:55;99382.41;;;21.29;49.05
39275;BME280;24980;48.874;2.332;2023-03-14T06:14:25;99384.50;;;21.28;49.03
39275;BME280;24980;48.874;2.332;2023-03-14T06:16:56;99401.12;;;21.29;49.00
39275;BME280;24980;48.874;2.332;2023-03-14T06:19:28;99403.16;;;21.29;48.99
39275;BME280;24980;48.874;2.332;2023-03-14T06:21:56;99428.99;;;21.28;48.97
39275;BME280;24980;48.874;2.332;2023-03-14T06:24:26;99425.19;;;21.23;49.00
39275;BME280;24980;48.874;2.332;2023-03-14T06:26:57;99439.56;;;21.22;48.99
39275;BME280;24980;48.874;2.332;2023-03-14T06:29:27;99448.74;;;21.22;48.95
39275;BME280;24980;48.874;2.332;2023-03-14T06:31:57;99470.44;;;21.22;48.92
39275;BME280;24980;48.874;2.332;2023-03-14T06:34:27;99477.19;;;21.22;48.91
39275;BME280;24980;48.874;2.332;2023-03-14T06:36:58;99486.74;;;21.22;48.92
39275;BME280;24980;48.874;2.332;2023-03-14T06:39:31;99493.98;;;21.22;48.93
39275;BME280;24980;48.874;2.332;2023-03-14T06:41:58;99504.13;;;21.23;48.95
39275;BME280;24980;48.874;2.332;2023-03-14T06:44:28;99517.70;;;21.23;48.99
39275;BME280;24980;48.874;2.332;2023-03-14T06:46:58;99521.58;;;21.23;49.02
39275;BME280;24980;48.874;2.332;2023-03-14T06:49:28;99543.36;;;21.22;49.01
39275;BME280;24980;48.874;2.332;2023-03-14T06:52:02;99555.42;;;21.22;49.00
39275;BME280;24980;48.874;2.332;2023-03-14T06:54:33;99549.73;;;21.18;49.03
39275;BME280;24980;48.874;2.332;2023-03-14T06:57:00;99566.12;;;21.13;49.09
39275;BME280;24980;48.874;2.332;2023-03-14T06:59:29;99571.48;;;21.12;49.06
39275;BME280;24980;48.874;2.332;2023-03-14T07:01:59;99570.58;;;21.11;49.02
39275;BME280;24980;48.874;2.332;2023-03-14T07:04:29;99584.16;;;21.10;49.00
39275;BME280;24980;48.874;2.332;2023-03-14T07:07:01;99596.09;;;21.12;48.96
39275;BME280;24980;48.874;2.332;2023-03-14T07:09:30;99600.90;;;21.14;48.93
39275;BME280;24980;48.874;2.332;2023-03-14T07:12:03;99596.32;;;21.15;48.93
39275;BME280;24980;48.874;2.332;2023-03-14T07:14:33;99610.97;;;21.16;48.96
39275;BME280;24980;48.874;2.332;2023-03-14T07:17:05;99628.04;;;21.13;48.98
39275;BME280;24980;48.874;2.332;2023-03-14T07:19:33;99628.86;;;21.12;48.99
39275;BME280;24980;48.874;2.332;2023-03-14T07:22:03;99635.34;;;21.09;49.02
39275;BME280;24980;48.874;2.332;2023-03-14T07:24:33;99640.10;;;21.10;49.01
39275;BME280;24980;48.874;2.332;2023-03-14T07:27:03;99649.49;;;21.09;48.98
39275;BME280;24980;48.874;2.332;2023-03-14T07:29:33;99651.77;;;21.09;48.98
39275;BME280;24980;48.874;2.332;2023-03-14T07:32:03;99662.61;;;21.09;48.97
39275;BME280;24980;48.874;2.332;2023-03-14T07:34:34;99672.92;;;21.07;48.97
39275;BME280;24980;48.874;2.332;2023-03-14T07:37:06;99692.27;;;21.06;48.96
39275;BME280;24980;48.874;2.332;2023-03-14T07:39:34;99690.18;;;21.05;48.97
39275;BME280;24980;48.874;2.332;2023-03-14T07:44:35;99714.77;;;21.06;48.98
39275;BME280;24980;48.874;2.332;2023-03-14T07:47:05;99714.78;;;21.05;49.02
39275;BME280;24980;48.874;2.332;2023-03-14T07:49:35;99726.65;;;21.02;49.02
39275;BME280;24980;48.874;2.332;2023-03-14T07:52:05;99713.03;;;21.00;49.05
39275;BME280;24980;48.874;2.332;2023-03-14T07:54:35;99722.27;;;20.99;49.02
39275;BME280;24980;48.874;2.332;2023-03-14T07:57:06;99727.49;;;20.99;49.01
39275;BME280;24980;48.874;2.332;2023-03-14T07:59:36;99744.77;;;20.99;48.98
39275;BME280;24980;48.874;2.332;2023-03-14T08:02:07;99743.43;;;20.98;48.99
39275;BME280;24980;48.874;2.332;2023-03-14T08:04:36;99754.39;;;20.98;48.99
39275;BME280;24980;48.874;2.332;2023-03-14T08:07:07;99765.51;;;20.98;48.96
39275;BME280;24980;48.874;2.332;2023-03-14T08:09:39;99765.85;;;20.97;48.95
39275;BME280;24980;48.874;2.332;2023-03-14T08:14:43;99771.66;;;20.94;48.92
39275;BME280;24980;48.874;2.332;2023-03-14T08:17:08;99785.05;;;20.91;48.92
39275;BME280;24980;48.874;2.332;2023-03-14T08:19:38;99784.01;;;20.90;48.90
39275;BME280;24980;48.874;2.332;2023-03-14T08:22:09;99793.30;;;20.91;48.86
39275;BME280;24980;48.874;2.332;2023-03-14T08:24:39;99797.02;;;20.91;48.83
39275;BME280;24980;48.874;2.332;2023-03-14T08:27:09;99800.61;;;20.92;48.81
39275;BME280;24980;48.874;2.332;2023-03-14T08:29:39;99806.20;;;20.94;48.80
39275;BME280;24980;48.874;2.332;2023-03-14T08:32:12;99811.55;;;20.93;48.81
39275;BME280;24980;48.874;2.332;2023-03-14T08:34:40;99817.55;;;20.92;48.82
39275;BME280;24980;48.874;2.332;2023-03-14T08:37:10;99829.78;;;20.91;48.84
39275;BME280;24980;48.874;2.332;2023-03-14T08:39:40;99831.27;;;20.90;48.84
39275;BME280;24980;48.874;2.332;2023-03-14T08:42:10;99826.92;;;20.87;48.85
39275;BME280;24980;48.874;2.332;2023-03-14T08:44:40;99836.16;;;20.85;48.86
39275;BME280;24980;48.874;2.332;2023-03-14T08:47:10;99836.59;;;20.85;48.82
39275;BME280;24980;48.874;2.332;2023-03-14T08:49:40;99844.58;;;20.85;48.80
39275;BME280;24980;48.874;2.332;2023-03-14T08:52:10;99853.44;;;20.85;48.77
39275;BME280;24980;48.874;2.332;2023-03-14T08:54:40;99855.20;;;20.84;48.75
39275;BME280;24980;48.874;2.332;2023-03-14T08:57:10;99852.86;;;20.84;48.73
39275;BME280;24980;48.874;2.332;2023-03-14T08:59:41;99867.66;;;20.85;48.70
39275;BME280;24980;48.874;2.332;2023-03-14T09:02:13;99863.21;;;20.84;48.68
39275;BME280;24980;48.874;2.332;2023-03-14T09:04:42;99871.19;;;20.82;48.67
39275;BME280;24980;48.874;2.332;2023-03-14T09:07:12;99886.02;;;20.82;48.66
39275;BME280;24980;48.874;2.332;2023-03-14T09:09:47;99875.80;;;20.83;48.63
39275;BME280;24980;48.874;2.332;2023-03-14T09:12:13;99885.78;;;20.84;48.60
39275;BME280;24980;48.874;2.332;2023-03-14T09:17:15;99890.88;;;20.87;48.54
39275;BME280;24980;48.874;2.332;2023-03-14T09:19:45;99899.64;;;20.87;48.51
39275;BME280;24980;48.874;2.332;2023-03-14T09:22:14;99917.43;;;20.86;48.50
39275;BME280;24980;48.874;2.332;2023-03-14T09:24:44;99925.66;;;20.83;48.52
39275;BME280;24980;48.874;2.332;2023-03-14T09:27:14;99936.36;;;20.83;48.52
39275;BME280;24980;48.874;2.332;2023-03-14T09:29:44;99964.09;;;20.81;48.55
39275;BME280;24980;48.874;2.332;2023-03-14T09:32:14;99972.23;;;20.80;48.54
39275;BME280;24980;48.874;2.332;2023-03-14T09:34:44;99975.17;;;20.75;48.54
39275;BME280;24980;48.874;2.332;2023-03-14T09:37:16;99987.62;;;20.72;48.52
39275;BME280;24980;48.874;2.332;2023-03-14T09:39:45;99990.73;;;20.72;48.47
39275;BME280;24980;48.874;2.332;2023-03-14T09:42:18;99995.61;;;20.73;48.42
39275;BME280;24980;48.874;2.332;2023-03-14T09:44:53;99999.93;;;20.71;48.39
39275;BME280;24980;48.874;2.332;2023-03-14T09:47:17;99999.12;;;20.70;48.35
39275;BME280;24980;48.874;2.332;2023-03-14T09:49:50;99998.66;;;20.72;48.31
39275;BME280;24980;48.874;2.332;2023-03-14T09:52:32;100008.23;;;20.69;48.29
39275;BME280;24980;48.874;2.332;2023-03-14T09:54:53;100023.19;;;20.67;48.30
39275;BME280;24980;48.874;2.332;2023-03-14T09:57:24;100020.75;;;20.67;48.30
39275;BME280;24980;48.874;2.332;2023-03-14T09:59:51;100038.61;;;20.67;48.33
39275;BME280;24980;48.874;2.332;2023-03-14T10:02:28;100072.39;;;20.65;48.33
39275;BME280;24980;48.874;2.332;2023-03-14T10:04:53;100089.78;;;20.58;48.37
39275;BME280;24980;48.874;2.332;2023-03-14T10:07:30;100074.84;;;20.57;48.32
39275;BME280;24980;48.874;2.332;2023-03-14T10:09:54;100082.33;;;20.58;48.28
39275;BME280;24980;48.874;2.332;2023-03-14T10:12:40;100086.24;;;20.58;48.21
39275;BME280;24980;48.874;2.332;2023-03-14T10:14:53;100087.16;;;20.60;48.17
39275;BME280;24980;48.874;2.332;2023-03-14T10:17:23;100088.77;;;20.58;48.15
39275;BME280;24980;48.874;2.332;2023-03-14T10:19:57;100079.59;;;20.58;48.16
39275;BME280;24980;48.874;2.332;2023-03-14T10:22:26;100090.32;;;20.58;48.15
39275;BME280;24980;48.874;2.332;2023-03-14T10:24:56;100094.06;;;20.59;48.12
39275;BME280;24980;48.874;2.332;2023-03-14T10:27:29;100099.94;;;20.61;48.10
39275;BME280;24980;48.874;2.332;2023-03-14T10:30:02;100102.08;;;20.63;48.11
39275;BME280;24980;48.874;2.332;2023-03-14T10:32:34;100112.59;;;20.64;48.09
39275;BME280;24980;48.874;2.332;2023-03-14T10:35:07;100119.80;;;20.65;48.09
39275;BME280;24980;48.874;2.332;2023-03-14T10:37:27;100116.98;;;20.62;48.10
39275;BME280;24980;48.874;2.332;2023-03-14T10:40:02;100119.76;;;20.63;48.11
39275;BME280;24980;48.874;2.332;2023-03-14T10:42:29;100120.21;;;20.65;48.10
39275;BME280;24980;48.874;2.332;2023-03-14T10:45:00;100126.78;;;20.65;48.09
39275;BME280;24980;48.874;2.332;2023-03-14T10:47:28;100123.79;;;20.64;48.10
39275;BME280;24980;48.874;2.332;2023-03-14T10:50:19;100136.41;;;20.68;48.06
39275;BME280;24980;48.874;2.332;2023-03-14T10:52:30;100128.34;;;20.72;48.02
39275;BME280;24980;48.874;2.332;2023-03-14T10:55:02;100142.97;;;20.74;47.99
39275;BME280;24980;48.874;2.332;2023-03-14T10:57:31;100151.99;;;20.72;47.97
39275;BME280;24980;48.874;2.332;2023-03-14T11:00:01;100160.80;;;20.70;47.98
39275;BME280;24980;48.874;2.332;2023-03-14T11:02:43;100157.45;;;20.68;47.98
39275;BME280;24980;48.874;2.332;2023-03-14T11:05:19;100158.92;;;20.68;47.97
39275;BME280;24980;48.874;2.332;2023-03-14T11:07:45;100167.26;;;20.67;47.94
39275;BME280;24980;48.874;2.332;2023-03-14T11:10:25;100171.95;;;20.72;47.89
39275;BME280;24980;48.874;2.332;2023-03-14T11:12:54;100172.05;;;20.77;47.83
39275;BME280;24980;48.874;2.332;2023-03-14T11:15:19;100172.62;;;20.81;47.78
39275;BME280;24980;48.874;2.332;2023-03-14T11:20:42;100172.44;;;20.83;47.75
39275;BME280;24980;48.874;2.332;2023-03-14T11:22:44;100169.62;;;20.87;47.70
39275;BME280;24980;48.874;2.332;2023-03-14T11:25:21;100173.44;;;20.91;47.65
39275;BME280;24980;48.874;2.332;2023-03-14T11:27:45;100175.62;;;20.92;47.62
39275;BME280;24980;48.874;2.332;2023-03-14T11:30:17;100188.54;;;20.94;47.60
39275;BME280;24980;48.874;2.332;2023-03-14T11:32:52;100198.73;;;20.94;47.63
39275;BME280;24980;48.874;2.332;2023-03-14T11:37:47;100189.83;;;20.97;47.61
39275;BME280;24980;48.874;2.332;2023-03-14T11:40:24;100175.69;;;21.01;47.56
39275;BME280;24980;48.874;2.332;2023-03-14T11:42:44;100186.47;;;21.00;47.54
39275;BME280;24980;48.874;2.332;2023-03-14T11:45:29;100175.58;;;20.98;47.54
39275;BME280;24980;48.874;2.332;2023-03-14T11:47:44;100180.30;;;20.98;47.54
39275;BME280;24980;48.874;2.332;2023-03-14T11:50:27;100196.30;;;20.98;47.50
39275;BME280;24980;48.874;2.332;2023-03-14T11:52:54;100183.64;;;20.95;47.46
39275;BME280;24980;48.874;2.332;2023-03-14T11:55:24;100186.59;;;20.94;47.44
39275;BME280;24980;48.874;2.332;2023-03-14T11:57:48;100198.10;;;20.93;47.40
39275;BME280;24980;48.874;2.332;2023-03-14T12:00:21;100207.42;;;20.90;47.38
39275;BME280;24980;48.874;2.332;2023-03-14T12:03:09;100204.39;;;20.90;47.37
39275;BME280;24980;48.874;2.332;2023-03-14T12:05:38;100216.19;;;20.89;47.35
39275;BME280;24980;48.874;2.332;2023-03-14T12:10:15;100227.46;;;20.93;47.30
39275;BME280;24980;48.874;2.332;2023-03-14T12:12:47;100221.64;;;20.94;47.28
39275;BME280;24980;48.874;2.332;2023-03-14T12:15:20;100219.09;;;20.91;47.28
39275;BME280;24980;48.874;2.332;2023-03-14T12:17:45;100224.56;;;20.92;47.27
39275;BME280;24980;48.874;2.332;2023-03-14T12:20:24;100223.47;;;20.91;47.26
39275;BME280;24980;48.874;2.332;2023-03-14T12:22:49;100230.34;;;20.90;47.29
39275;BME280;24980;48.874;2.332;2023-03-14T12:25:20;100232.04;;;20.88;47.34
39275;BME280;24980;48.874;2.332;2023-03-14T12:30:40;100214.06;;;20.86;47.41
39275;BME280;24980;48.874;2.332;2023-03-14T12:33:18;100229.62;;;20.83;47.42
39275;BME280;24980;48.874;2.332;2023-03-14T12:35:40;100229.30;;;20.81;47.43
39275;BME280;24980;48.874;2.332;2023-03-14T12:37:53;100231.63;;;20.78;47.39
39275;BME280;24980;48.874;2.332;2023-03-14T12:40:26;100231.50;;;20.77;47.35
39275;BME280;24980;48.874;2.332;2023-03-14T12:42:57;100225.48;;;20.78;47.29
39275;BME280;24980;48.874;2.332;2023-03-14T12:45:28;100230.86;;;20.79;47.22
39275;BME280;24980;48.874;2.332;2023-03-14T12:48:09;100224.35;;;20.76;47.18
39275;BME280;24980;48.874;2.332;2023-03-14T12:50:28;100222.31;;;20.72;47.17
39275;BME280;24980;48.874;2.332;2023-03-14T12:55:49;100229.62;;;20.73;47.05
39275;BME280;24980;48.874;2.332;2023-03-14T13:00:33;100234.19;;;20.71;47.00
39275;BME280;24980;48.874;2.332;2023-03-14T13:03:19;100234.86;;;20.71;46.96
39275;BME280;24980;48.874;2.332;2023-03-14T13:05:26;100236.45;;;20.73;46.91
39275;BME280;24980;48.874;2.332;2023-03-14T13:08:02;100236.11;;;20.74;46.86
39275;BME280;24980;48.874;2.332;2023-03-14T13:10:29;100236.45;;;20.74;46.85
39275;BME280;24980;48.874;2.332;2023-03-14T13:13:24;100236.28;;;20.73;46.83
39275;BME280;24980;48.874;2.332;2023-03-14T13:15:33;100243.95;;;20.72;46.83
39275;BME280;24980;48.874;2.332;2023-03-14T13:18:03;100250.59;;;20.74;46.80
39275;BME280;24980;48.874;2.332;2023-03-14T13:20:36;100265.62;;;20.74;46.77
39275;BME280;24980;48.874;2.332;2023-03-14T13:23:01;100292.16;;;20.75;46.76
39275;BME280;24980;48.874;2.332;2023-03-14T13:25:34;100281.37;;;20.75;46.74
39275;BME280;24980;48.874;2.332;2023-03-14T13:28:02;100288.01;;;20.77;46.73
39275;BME280;24980;48.874;2.332;2023-03-14T13:30:39;100295.21;;;20.78;46.72
39275;BME280;24980;48.874;2.332;2023-03-14T13:33:04;100308.34;;;20.78;46.72
39275;BME280;24980;48.874;2.332;2023-03-14T13:35:44;100324.53;;;20.77;46.75
39275;BME280;24980;48.874;2.332;2023-03-14T13:38:04;100321.74;;;20.78;46.75
39275;BME280;24980;48.874;2.332;2023-03-14T13:40:34;100347.00;;;20.79;46.74